Time;durP1;ratioP1;P1;durP2;ratioP2;P2;SDS_P1;SDS_P2;PMS_P1;PMS_P2;Temp;Humidity;BMP_temperature;BMP_pressure;BME280_temperature;BME280_humidity;BME280_pressure;Samples;Min_cycle;Max_cycle;Signal;HPM_P1;HPM_P2
2023/01/02 00:00:30;;;;;;;1.35;0.85;;;;;;;;;;5088289;28;20048;-61
2023/01/02 00:02:56;;;;;;;1.35;1.10;;;;;;;;;;5087243;28;20043;-61
2023/01/02 00:05:22;;;;;;;1.95;0.80;;;;;;;;;;5085636;28;20045;-61
2023/01/02 00:07:48;;;;;;;1.10;0.80;;;;;;;;;;5078399;28;20079;-61
2023/01/02 00:10:14;;;;;;;1.45;0.80;;;;;;;;;;5083337;28;20063;-61
2023/01/02 00:12:40;;;;;;;1.13;0.50;;;;;;;;;;5093770;28;20043;-61
2023/01/02 00:15:06;;;;;;;1.17;0.63;;;;;;;;;;5085493;28;20036;-61
2023/01/02 00:17:32;;;;;;;0.68;0.60;;;;;;;;;;5098701;28;20050;-61
2023/01/02 00:19:58;;;;;;;0.80;0.65;;;;;;;;;;5091081;28;20047;-61
2023/01/02 00:22:24;;;;;;;0.70;0.60;;;;;;;;;;5085680;28;20044;-61
2023/01/02 00:24:50;;;;;;;1.10;0.60;;;;;;;;;;5084281;28;20043;-61
2023/01/02 00:27:16;;;;;;;1.35;0.75;;;;;;;;;;5084640;28;20047;-61
2023/01/02 00:29:42;;;;;;;0.70;0.60;;;;;;;;;;5091385;28;20051;-61
2023/01/02 00:32:08;;;;;;;0.40;0.40;;;;;;;;;;5094660;28;20455;-61
2023/01/02 00:34:34;;;;;;;0.88;0.70;;;;;;;;;;5098292;28;20051;-61
2023/01/02 00:37:00;;;;;;;1.45;1.00;;;;;;;;;;5083982;28;20154;-61
2023/01/02 00:39:27;;;;;;;1.45;0.90;;;;;;;;;;5085209;28;20489;-61
2023/01/02 00:41:53;;;;;;;0.95;0.88;;;;;;;;;;5082004;28;20046;-61
2023/01/02 00:44:19;;;;;;;1.13;0.90;;;;;;;;;;5091485;28;20044;-61
2023/01/02 00:46:45;;;;;;;1.45;1.10;;;;;;;;;;5082830;28;20036;-62
2023/01/02 00:49:11;;;;;;;1.02;1.00;;;;;;;;;;5091073;28;20039;-61
2023/01/02 00:51:37;;;;;;;0.93;0.82;;;;;;;;;;5078495;28;20039;-61
2023/01/02 00:54:03;;;;;;;1.02;0.93;;;;;;;;;;5091614;28;20589;-61
2023/01/02 00:56:29;;;;;;;1.10;0.70;;;;;;;;;;5082604;28;20085;-61
2023/01/02 00:58:55;;;;;;;0.82;0.73;;;;;;;;;;5093476;28;20051;-61
2023/01/02 01:01:21;;;;;;;0.50;0.50;;;;;;;;;;5093135;28;20036;-61
2023/01/02 01:03:47;;;;;;;0.47;0.47;;;;;;;;;;5091253;28;20075;-61
2023/01/02 01:06:13;;;;;;;0.32;0.32;;;;;;;;;;5093551;28;20043;-61
2023/01/02 01:08:40;;;;;;;0.30;0.30;;;;;;;;;;5082804;28;20039;-61
2023/01/02 01:11:13;;;;;;;0.70;0.50;;;;;;;;;;5091092;28;20043;-61
2023/01/02 01:13:39;;;;;;;0.50;0.50;;;;;;;;;;5090490;28;20032;-61
2023/01/02 01:16:12;;;;;;;0.93;0.93;;;;;;;;;;5082660;28;20054;-62
2023/01/02 01:18:38;;;;;;;0.63;0.63;;;;;;;;;;5082139;28;20044;-61
2023/01/02 01:21:09;;;;;;;1.15;0.70;;;;;;;;;;5083773;28;20059;-61
2023/01/02 01:23:35;;;;;;;1.20;1.10;;;;;;;;;;5083866;28;20126;-61
2023/01/02 01:26:09;;;;;;;1.52;0.90;;;;;;;;;;5083114;28;20185;-61
2023/01/02 01:28:35;;;;;;;1.20;1.10;;;;;;;;;;5092299;28;20108;-61
2023/01/02 01:31:05;;;;;;;0.70;0.70;;;;;;;;;;5090483;28;20044;-61
2023/01/02 01:33:31;;;;;;;1.08;0.90;;;;;;;;;;5087349;28;20036;-61
2023/01/02 01:36:05;;;;;;;0.98;0.98;;;;;;;;;;5091368;28;20055;-61
2023/01/02 01:38:31;;;;;;;0.90;0.85;;;;;;;;;;5082971;28;20080;-61
2023/01/02 01:40:57;;;;;;;1.08;0.98;;;;;;;;;;5094155;28;20122;-61
2023/01/02 01:43:42;;;;;;;1.73;1.13;;;;;;;;;;5096471;28;20482;-62
2023/01/02 01:46:18;;;;;;;1.20;1.10;;;;;;;;;;5093015;28;20040;-62
2023/01/02 01:48:44;;;;;;;1.70;0.90;;;;;;;;;;5083847;28;20169;-61
2023/01/02 01:51:10;;;;;;;1.40;0.98;;;;;;;;;;5093321;28;20060;-61
2023/01/02 01:53:36;;;;;;;0.98;0.80;;;;;;;;;;5091378;28;20046;-62
2023/01/02 01:56:05;;;;;;;1.42;0.90;;;;;;;;;;5085980;28;20550;-61
2023/01/02 01:58:34;;;;;;;1.27;1.17;;;;;;;;;;5081903;28;20825;-62
2023/01/02 02:01:00;;;;;;;1.90;1.17;;;;;;;;;;5082228;28;20055;-61
2023/01/02 02:03:28;;;;;;;1.48;1.38;;;;;;;;;;5092527;28;20044;-61
2023/01/02 02:05:55;;;;;;;2.20;0.98;;;;;;;;;;5090660;28;20516;-61
2023/01/02 02:08:28;;;;;;;1.63;1.38;;;;;;;;;;5090673;28;20036;-61
2023/01/02 02:10:54;;;;;;;0.90;0.80;;;;;;;;;;5081783;28;20051;-61
2023/01/02 02:13:20;;;;;;;0.80;0.80;;;;;;;;;;5081986;28;20043;-61
2023/01/02 02:15:46;;;;;;;1.55;0.70;;;;;;;;;;5088962;28;20036;-61
2023/01/02 02:18:26;;;;;;;0.88;0.80;;;;;;;;;;5090040;28;20612;-61
2023/01/02 02:20:57;;;;;;;1.13;1.02;;;;;;;;;;5087756;28;20097;-61
2023/01/02 02:23:42;;;;;;;0.90;0.90;;;;;;;;;;5082029;28;20092;-62
2023/01/02 02:26:08;;;;;;;0.80;0.80;;;;;;;;;;5090819;28;20040;-61
2023/01/02 02:28:40;;;;;;;0.75;0.75;;;;;;;;;;5090544;28;20047;-61
2023/01/02 02:31:23;;;;;;;1.33;1.23;;;;;;;;;;5094884;28;20623;-61
2023/01/02 02:34:04;;;;;;;0.88;0.88;;;;;;;;;;5093475;28;20389;-61
2023/01/02 02:36:42;;;;;;;1.15;1.05;;;;;;;;;;5096697;28;20133;-62
2023/01/02 02:39:27;;;;;;;1.35;1.02;;;;;;;;;;5086472;28;20083;-61
2023/01/02 02:41:55;;;;;;;0.85;0.85;;;;;;;;;;5092183;28;20044;-61
2023/01/02 02:44:44;;;;;;;2.28;1.90;;;;;;;;;;5085995;28;20483;-61
2023/01/02 02:47:15;;;;;;;1.80;1.70;;;;;;;;;;5097642;28;20039;-65
2023/01/02 02:50:00;;;;;;;2.50;2.20;;;;;;;;;;5096215;28;20097;-61
2023/01/02 02:52:28;;;;;;;2.33;2.13;;;;;;;;;;5091215;28;20683;-61
2023/01/02 02:55:06;;;;;;;3.72;3.42;;;;;;;;;;5092856;28;20051;-61
2023/01/02 02:57:33;;;;;;;3.70;3.30;;;;;;;;;;5097712;28;20048;-62
2023/01/02 02:59:59;;;;;;;5.85;3.92;;;;;;;;;;5086046;28;20044;-61
2023/01/02 03:02:25;;;;;;;6.57;4.07;;;;;;;;;;5085047;28;20044;-61
2023/01/02 03:04:57;;;;;;;5.05;3.25;;;;;;;;;;5092641;28;20048;-61
2023/01/02 03:07:31;;;;;;;4.85;3.83;;;;;;;;;;5084826;28;20077;-61
2023/01/02 03:10:00;;;;;;;4.47;3.63;;;;;;;;;;5086737;28;20085;-61
2023/01/02 03:12:29;;;;;;;3.65;3.35;;;;;;;;;;5106668;28;20051;-61
2023/01/02 03:15:17;;;;;;;3.67;3.38;;;;;;;;;;5087516;28;20999;-62
2023/01/02 03:18:03;;;;;;;4.85;3.97;;;;;;;;;;5091685;28;20091;-61
2023/01/02 03:20:33;;;;;;;3.70;3.40;;;;;;;;;;5097403;28;20048;-61
2023/01/02 03:23:01;;;;;;;4.22;3.65;;;;;;;;;;5085011;28;20050;-62
2023/01/02 03:25:28;;;;;;;3.92;3.63;;;;;;;;;;5084978;28;20070;-61
2023/01/02 03:27:55;;;;;;;4.15;3.83;;;;;;;;;;5086369;28;20055;-61
2023/01/02 03:30:22;;;;;;;3.33;3.03;;;;;;;;;;5087208;28;20046;-62
2023/01/02 03:33:03;;;;;;;3.85;3.28;;;;;;;;;;5095286;28;20045;-61
2023/01/02 03:35:35;;;;;;;3.72;3.30;;;;;;;;;;5084494;28;20044;-61
2023/01/02 03:38:02;;;;;;;3.28;2.97;;;;;;;;;;5094593;28;20054;-61
2023/01/02 03:40:32;;;;;;;3.25;2.90;;;;;;;;;;5086134;28;20062;-61
2023/01/02 03:43:01;;;;;;;4.07;3.05;;;;;;;;;;5094972;28;20040;-62
2023/01/02 03:45:32;;;;;;;4.22;3.83;;;;;;;;;;5096492;28;20113;-62
2023/01/02 03:48:17;;;;;;;3.92;3.53;;;;;;;;;;5100382;28;20550;-61
2023/01/02 03:50:46;;;;;;;3.67;3.38;;;;;;;;;;5086868;28;20510;-61
2023/01/02 03:53:12;;;;;;;3.72;3.42;;;;;;;;;;5086949;28;20538;-62
2023/01/02 03:55:40;;;;;;;4.22;3.90;;;;;;;;;;5105086;28;20489;-62
2023/01/02 03:58:20;;;;;;;3.92;3.63;;;;;;;;;;5087905;28;20404;-61
2023/01/02 04:00:55;;;;;;;4.57;4.18;;;;;;;;;;5086079;28;20519;-62
2023/01/02 04:03:25;;;;;;;5.10;4.60;;;;;;;;;;5087438;28;20043;-62
2023/01/02 04:05:54;;;;;;;6.38;5.78;;;;;;;;;;5085597;28;20120;-61
2023/01/02 04:08:39;;;;;;;5.63;5.10;;;;;;;;;;5086864;28;20036;-62
2023/01/02 04:11:06;;;;;;;6.22;4.80;;;;;;;;;;5106084;28;20043;-62
2023/01/02 04:13:33;;;;;;;6.55;5.00;;;;;;;;;;5105246;28;20121;-61
2023/01/02 04:15:59;;;;;;;6.70;5.20;;;;;;;;;;5104318;28;21000;-62
2023/01/02 04:18:36;;;;;;;8.00;5.85;;;;;;;;;;5086757;28;20075;-61
2023/01/02 04:21:06;;;;;;;9.10;6.13;;;;;;;;;;5104947;28;20043;-61
2023/01/02 04:23:36;;;;;;;7.95;5.68;;;;;;;;;;5105812;28;20047;-61
2023/01/02 04:26:07;;;;;;;6.88;6.22;;;;;;;;;;5097601;28;20047;-61
2023/01/02 04:28:34;;;;;;;5.20;4.70;;;;;;;;;;5086517;28;20050;-62
2023/01/02 04:31:07;;;;;;;5.13;4.63;;;;;;;;;;5103856;28;20444;-61
2023/01/02 04:33:36;;;;;;;8.27;6.43;;;;;;;;;;5097744;28;20043;-62
2023/01/02 04:36:12;;;;;;;7.22;6.53;;;;;;;;;;5086406;28;20172;-62
2023/01/02 04:38:38;;;;;;;9.27;6.28;;;;;;;;;;5104410;28;20516;-62
2023/01/02 04:41:05;;;;;;;8.32;5.70;;;;;;;;;;5086783;28;20062;-61
2023/01/02 04:43:31;;;;;;;5.53;5.03;;;;;;;;;;5086608;28;20572;-61
2023/01/02 04:45:57;;;;;;;6.55;4.90;;;;;;;;;;5085758;28;20047;-61
2023/01/02 04:48:23;;;;;;;6.35;5.72;;;;;;;;;;5104219;28;20105;-62
2023/01/02 04:50:49;;;;;;;5.50;5.00;;;;;;;;;;5085025;28;20639;-62
2023/01/02 04:53:15;;;;;;;6.75;4.95;;;;;;;;;;5104912;28;20043;-61
2023/01/02 04:55:41;;;;;;;5.97;4.72;;;;;;;;;;5085482;28;20139;-61
2023/01/02 04:58:07;;;;;;;8.40;5.57;;;;;;;;;;5086927;28;20036;-62
2023/01/02 05:00:33;;;;;;;5.03;4.63;;;;;;;;;;5098445;28;20047;-64
2023/01/02 05:03:03;;;;;;;4.97;4.57;;;;;;;;;;5102879;28;20044;-61
2023/01/02 05:05:29;;;;;;;5.72;5.05;;;;;;;;;;5086542;28;20179;-62
2023/01/02 05:07:57;;;;;;;6.00;5.35;;;;;;;;;;5085186;28;20163;-62
2023/01/02 05:10:23;;;;;;;6.45;5.85;;;;;;;;;;5084405;28;20048;-62
2023/01/02 05:12:49;;;;;;;5.57;4.90;;;;;;;;;;5102803;28;20048;-61
2023/01/02 05:15:15;;;;;;;7.40;5.50;;;;;;;;;;5104414;28;20089;-62
2023/01/02 05:17:41;;;;;;;6.43;5.18;;;;;;;;;;5085256;28;20075;-61
2023/01/02 05:20:09;;;;;;;5.13;4.63;;;;;;;;;;5105560;28;20043;-61
2023/01/02 05:25:22;;;;;;;9.68;5.80;;;;;;;;;;5099554;28;20048;-61
2023/01/02 05:27:51;;;;;;;5.90;5.30;;;;;;;;;;5083623;28;20070;-61
2023/01/02 05:30:17;;;;;;;5.10;4.70;;;;;;;;;;5095533;28;20040;-61
2023/01/02 05:32:43;;;;;;;4.22;3.92;;;;;;;;;;5086003;28;20056;-61
2023/01/02 05:35:09;;;;;;;4.55;4.20;;;;;;;;;;5093513;28;20073;-61
2023/01/02 05:37:35;;;;;;;6.15;4.03;;;;;;;;;;5095806;28;20225;-62
2023/01/02 05:40:01;;;;;;;3.67;3.38;;;;;;;;;;5084272;28;20379;-61
2023/01/02 05:42:27;;;;;;;4.07;3.78;;;;;;;;;;5095376;28;20044;-62
2023/01/02 05:44:53;;;;;;;3.50;3.30;;;;;;;;;;5102836;28;20473;-61
2023/01/02 05:47:19;;;;;;;3.70;3.40;;;;;;;;;;5084594;28;20066;-61
2023/01/02 05:49:45;;;;;;;4.07;3.33;;;;;;;;;;5085596;28;20132;-62
2023/01/02 05:52:11;;;;;;;3.78;3.45;;;;;;;;;;5084996;28;20469;-61
2023/01/02 05:54:37;;;;;;;3.67;3.30;;;;;;;;;;5101544;28;20118;-61
2023/01/02 05:57:03;;;;;;;3.40;3.10;;;;;;;;;;5096248;28;20040;-61
2023/01/02 05:59:29;;;;;;;3.97;3.63;;;;;;;;;;5099245;28;20062;-61
2023/01/02 06:01:55;;;;;;;4.15;3.63;;;;;;;;;;5093414;28;20444;-61
2023/01/02 06:04:21;;;;;;;4.07;3.78;;;;;;;;;;5084644;28;20035;-61
2023/01/02 06:06:48;;;;;;;6.47;4.03;;;;;;;;;;5102514;28;20051;-61
2023/01/02 06:09:15;;;;;;;5.30;4.45;;;;;;;;;;5103182;28;20043;-62
2023/01/02 06:11:41;;;;;;;3.90;3.60;;;;;;;;;;5085039;28;20051;-62
2023/01/02 06:14:09;;;;;;;4.25;3.90;;;;;;;;;;5103992;28;20028;-61
2023/01/02 06:16:35;;;;;;;3.97;3.58;;;;;;;;;;5102131;28;20043;-62
2023/01/02 06:19:01;;;;;;;3.97;3.67;;;;;;;;;;5083205;28;20044;-61
2023/01/02 06:21:27;;;;;;;4.35;4.03;;;;;;;;;;5085281;28;20047;-61
2023/01/02 06:23:55;;;;;;;3.75;3.45;;;;;;;;;;5083773;28;20070;-61
2023/01/02 06:26:21;;;;;;;4.45;4.05;;;;;;;;;;5098640;28;20039;-61
2023/01/02 06:28:51;;;;;;;5.50;5.00;;;;;;;;;;5084923;28;20043;-61
2023/01/02 06:31:18;;;;;;;5.50;5.00;;;;;;;;;;5095392;28;20104;-61
2023/01/02 06:33:44;;;;;;;5.38;4.97;;;;;;;;;;5102817;28;20075;-62
2023/01/02 06:36:12;;;;;;;5.20;4.80;;;;;;;;;;5103506;28;20059;-61
2023/01/02 06:38:38;;;;;;;5.50;5.05;;;;;;;;;;5103714;28;20058;-62
2023/01/02 06:41:04;;;;;;;5.22;4.82;;;;;;;;;;5084214;28;20036;-62
2023/01/02 06:43:31;;;;;;;4.32;3.92;;;;;;;;;;5086620;28;20524;-61
2023/01/02 06:45:58;;;;;;;4.80;4.40;;;;;;;;;;5085687;28;21231;-61
2023/01/02 06:48:24;;;;;;;5.00;4.60;;;;;;;;;;5103868;28;20043;-61
2023/01/02 06:50:50;;;;;;;4.60;4.30;;;;;;;;;;5081821;28;20172;-61
2023/01/02 06:53:16;;;;;;;5.25;4.75;;;;;;;;;;5093656;28;20068;-61
2023/01/02 06:55:52;;;;;;;5.32;4.38;;;;;;;;;;5081864;28;20055;-61
2023/01/02 06:58:18;;;;;;;5.93;4.20;;;;;;;;;;5097875;28;20043;-61
2023/01/02 07:00:44;;;;;;;3.60;3.30;;;;;;;;;;5091345;28;20081;-61
2023/01/02 07:03:10;;;;;;;3.85;3.45;;;;;;;;;;5078743;28;20515;-61
2023/01/02 07:05:36;;;;;;;3.25;2.65;;;;;;;;;;5086880;28;20449;-61
2023/01/02 07:08:02;;;;;;;2.65;2.38;;;;;;;;;;5094479;28;20135;-62
2023/01/02 07:10:28;;;;;;;3.03;2.33;;;;;;;;;;5094833;28;20090;-62
2023/01/02 07:12:54;;;;;;;1.70;1.25;;;;;;;;;;5085909;28;20051;-61
2023/01/02 07:15:20;;;;;;;1.30;0.73;;;;;;;;;;5100166;28;20032;-62
2023/01/02 07:17:46;;;;;;;3.40;0.95;;;;;;;;;;5100597;28;20047;-62
2023/01/02 07:20:12;;;;;;;0.65;0.43;;;;;;;;;;5088595;28;20397;-62
2023/01/02 07:22:38;;;;;;;1.38;0.40;;;;;;;;;;5099183;28;20063;-62
2023/01/02 07:25:04;;;;;;;0.45;0.35;;;;;;;;;;5085665;28;20127;-63
2023/01/02 07:27:31;;;;;;;0.30;0.30;;;;;;;;;;5102444;28;20172;-62
2023/01/02 07:29:57;;;;;;;1.52;0.25;;;;;;;;;;5088055;28;20458;-62
2023/01/02 07:32:23;;;;;;;0.20;0.10;;;;;;;;;;5087139;28;20066;-62
2023/01/02 07:34:49;;;;;;;0.52;0.30;;;;;;;;;;5098338;28;20529;-62
2023/01/02 07:37:15;;;;;;;0.15;0.10;;;;;;;;;;5096555;28;20059;-62
2023/01/02 07:39:41;;;;;;;0.43;0.25;;;;;;;;;;5095722;28;20036;-62
2023/01/02 07:42:07;;;;;;;0.57;0.25;;;;;;;;;;5101037;28;20168;-63
2023/01/02 07:44:33;;;;;;;0.20;0.10;;;;;;;;;;5102228;28;20047;-62
2023/01/02 07:46:59;;;;;;;0.98;0.30;;;;;;;;;;5098684;28;20074;-62
2023/01/02 07:49:25;;;;;;;0.68;0.30;;;;;;;;;;5086918;28;20125;-62
2023/01/02 07:51:51;;;;;;;0.38;0.30;;;;;;;;;;5097447;28;20044;-63
2023/01/02 07:54:17;;;;;;;0.45;0.20;;;;;;;;;;5089990;28;20055;-62
2023/01/02 07:56:43;;;;;;;0.45;0.22;;;;;;;;;;5104530;28;20539;-62
2023/01/02 07:59:09;;;;;;;0.82;0.50;;;;;;;;;;5102699;28;20127;-62
2023/01/02 08:01:35;;;;;;;0.55;0.20;;;;;;;;;;5095262;28;20131;-62
2023/01/02 08:04:01;;;;;;;1.00;0.30;;;;;;;;;;5090973;28;20457;-63
2023/01/02 08:06:27;;;;;;;1.15;0.32;;;;;;;;;;5097717;28;20055;-62
2023/01/02 08:08:53;;;;;;;0.50;0.40;;;;;;;;;;5096931;28;20074;-62
2023/01/02 08:11:20;;;;;;;1.23;0.30;;;;;;;;;;5088609;28;20035;-63
2023/01/02 08:13:46;;;;;;;0.52;0.30;;;;;;;;;;5085149;28;20040;-62
2023/01/02 08:16:14;;;;;;;0.45;0.30;;;;;;;;;;5087960;28;20040;-62
2023/01/02 08:18:40;;;;;;;0.75;0.20;;;;;;;;;;5092589;28;20039;-63
2023/01/02 08:21:06;;;;;;;0.45;0.30;;;;;;;;;;5100873;28;20404;-62
2023/01/02 08:23:33;;;;;;;1.27;0.20;;;;;;;;;;5093607;28;20040;-63
2023/01/02 08:25:59;;;;;;;1.65;0.50;;;;;;;;;;5085239;28;20481;-63
2023/01/02 08:28:25;;;;;;;0.93;0.40;;;;;;;;;;5095304;28;20039;-63
2023/01/02 08:30:52;;;;;;;2.28;0.70;;;;;;;;;;5093063;28;20074;-62
2023/01/02 08:33:18;;;;;;;0.50;0.28;;;;;;;;;;5098948;28;20051;-62
2023/01/02 08:35:44;;;;;;;0.28;0.20;;;;;;;;;;5094822;28;20248;-63
2023/01/02 08:38:10;;;;;;;0.40;0.30;;;;;;;;;;5085261;28;20175;-63
2023/01/02 08:40:36;;;;;;;1.13;0.30;;;;;;;;;;5096247;28;20074;-62
2023/01/02 08:43:02;;;;;;;0.40;0.32;;;;;;;;;;5087400;28;20446;-62
2023/01/02 08:45:28;;;;;;;0.30;0.30;;;;;;;;;;5098111;28;20061;-62
2023/01/02 08:47:54;;;;;;;0.30;0.30;;;;;;;;;;5095277;28;20039;-62
2023/01/02 08:50:20;;;;;;;0.75;0.57;;;;;;;;;;5097448;28;20035;-62
2023/01/02 08:52:46;;;;;;;1.05;0.55;;;;;;;;;;5095303;28;20085;-63
2023/01/02 08:55:12;;;;;;;0.30;0.30;;;;;;;;;;5095811;28;20036;-65
2023/01/02 08:57:39;;;;;;;0.73;0.60;;;;;;;;;;5096118;28;20035;-64
2023/01/02 09:00:05;;;;;;;0.75;0.57;;;;;;;;;;5093352;28;20046;-63
2023/01/02 09:02:31;;;;;;;0.57;0.45;;;;;;;;;;5086275;28;20040;-64
2023/01/02 09:04:58;;;;;;;0.68;0.47;;;;;;;;;;5104791;28;20055;-67
2023/01/02 09:07:24;;;;;;;1.25;0.50;;;;;;;;;;5084073;28;20050;-63
2023/01/02 09:09:50;;;;;;;1.40;0.75;;;;;;;;;;5101011;28;20604;-62
2023/01/02 09:12:16;;;;;;;2.15;0.68;;;;;;;;;;5086348;28;20134;-62
2023/01/02 09:14:42;;;;;;;1.42;0.50;;;;;;;;;;5103533;28;20185;-63
2023/01/02 09:17:09;;;;;;;0.68;0.65;;;;;;;;;;5097126;28;20114;-63
2023/01/02 09:19:35;;;;;;;0.80;0.40;;;;;;;;;;5095304;28;20040;-63
2023/01/02 09:22:01;;;;;;;0.77;0.40;;;;;;;;;;5081953;28;20498;-63
2023/01/02 09:24:28;;;;;;;2.00;0.85;;;;;;;;;;5084832;28;20048;-63
2023/01/02 09:26:54;;;;;;;2.15;0.60;;;;;;;;;;5083489;28;20705;-63
2023/01/02 09:29:20;;;;;;;1.27;0.70;;;;;;;;;;5089528;28;20040;-63
2023/01/02 09:31:46;;;;;;;3.03;0.95;;;;;;;;;;5083213;28;20055;-63
2023/01/02 09:34:12;;;;;;;1.63;0.80;;;;;;;;;;5096237;28;20406;-62
2023/01/02 09:36:39;;;;;;;3.30;0.90;;;;;;;;;;5092554;28;20072;-63
2023/01/02 09:39:05;;;;;;;1.60;0.88;;;;;;;;;;5082926;28;20055;-63
2023/01/02 09:41:31;;;;;;;1.65;0.90;;;;;;;;;;5083586;28;20052;-63
2023/01/02 09:44:10;;;;;;;2.25;1.50;;;;;;;;;;5082938;28;20056;-62
2023/01/02 09:46:40;;;;;;;3.63;2.03;;;;;;;;;;5078353;28;20556;-63
2023/01/02 09:49:06;;;;;;;2.40;2.05;;;;;;;;;;5086932;28;20170;-63
2023/01/02 09:51:34;;;;;;;2.63;2.08;;;;;;;;;;5080382;28;20209;-62
2023/01/02 09:54:00;;;;;;;2.08;1.85;;;;;;;;;;5095441;28;20050;-63
2023/01/02 09:56:40;;;;;;;1.70;1.60;;;;;;;;;;5102326;28;20048;-63
2023/01/02 09:59:06;;;;;;;4.10;1.52;;;;;;;;;;5102004;28;20035;-63
2023/01/02 10:01:39;;;;;;;3.10;1.73;;;;;;;;;;5103919;28;20631;-63
2023/01/02 10:04:13;;;;;;;2.13;1.50;;;;;;;;;;5102833;28;20036;-63
2023/01/02 10:06:43;;;;;;;1.55;1.23;;;;;;;;;;5102670;28;20440;-63
2023/01/02 10:09:28;;;;;;;1.90;1.15;;;;;;;;;;5080545;28;20040;-63
2023/01/02 10:11:54;;;;;;;1.27;1.00;;;;;;;;;;5091646;28;20044;-63
2023/01/02 10:14:44;;;;;;;1.10;1.00;;;;;;;;;;5083867;28;20051;-64
2023/01/02 10:17:12;;;;;;;2.65;1.23;;;;;;;;;;5096264;28;20125;-63
2023/01/02 10:19:41;;;;;;;4.40;1.50;;;;;;;;;;5087947;28;20123;-63
2023/01/02 10:22:09;;;;;;;1.05;0.95;;;;;;;;;;5095704;28;20386;-63
2023/01/02 10:24:38;;;;;;;1.33;0.85;;;;;;;;;;5094903;28;20052;-63
2023/01/02 10:27:05;;;;;;;3.20;1.52;;;;;;;;;;5089616;28;20046;-63
2023/01/02 10:29:34;;;;;;;1.20;0.63;;;;;;;;;;5081995;28;20056;-66
2023/01/02 10:32:00;;;;;;;2.00;0.98;;;;;;;;;;5075724;28;20171;-66
2023/01/02 10:34:33;;;;;;;1.95;1.10;;;;;;;;;;5089096;28;20084;-66
2023/01/02 10:36:59;;;;;;;;;;;;;;;;;;5094542;28;20108;-65
2023/01/02 10:39:27;;;;;;;0.98;0.70;;;;;;;;;;5081561;28;19923;-66
2023/01/02 10:41:55;;;;;;;1.77;1.00;;;;;;;;;;5093078;28;20032;-65
2023/01/02 10:44:21;;;;;;;0.85;0.82;;;;;;;;;;5095107;28;20035;-67
2023/01/02 10:46:47;;;;;;;0.95;0.90;;;;;;;;;;5078553;28;20067;-65
2023/01/02 10:49:14;;;;;;;2.80;1.17;;;;;;;;;;5084460;28;20083;-65
2023/01/02 10:51:47;;;;;;;1.88;1.00;;;;;;;;;;5080687;28;20052;-65
2023/01/02 10:54:13;;;;;;;2.85;1.00;;;;;;;;;;5081188;28;20058;-65
2023/01/02 10:56:40;;;;;;;3.75;1.48;;;;;;;;;;5083816;28;20043;-68
2023/01/02 10:59:20;;;;;;;1.90;1.15;;;;;;;;;;5089450;28;20031;-64
2023/01/02 11:01:50;;;;;;;0.93;0.82;;;;;;;;;;5087391;28;20820;-64
2023/01/02 11:04:20;;;;;;;1.10;1.00;;;;;;;;;;5107580;28;20040;-63
2023/01/02 11:06:51;;;;;;;4.47;1.42;;;;;;;;;;5089611;28;20047;-63
2023/01/02 11:09:22;;;;;;;3.38;1.20;;;;;;;;;;5093359;28;20075;-64
2023/01/02 11:11:55;;;;;;;2.00;1.15;;;;;;;;;;5076058;28;20040;-63
2023/01/02 11:14:31;;;;;;;2.63;1.20;;;;;;;;;;5087517;28;20359;-64
2023/01/02 11:17:02;;;;;;;1.52;0.90;;;;;;;;;;5086414;28;20374;-63
2023/01/02 11:19:28;;;;;;;2.38;1.38;;;;;;;;;;5066486;28;20138;-63
2023/01/02 11:21:55;;;;;;;5.05;1.35;;;;;;;;;;5071581;28;20443;-63
2023/01/02 11:24:25;;;;;;;2.97;1.15;;;;;;;;;;5084453;28;20482;-63
2023/01/02 11:26:52;;;;;;;4.90;1.50;;;;;;;;;;5084827;28;20051;-64
2023/01/02 11:29:21;;;;;;;3.17;1.48;;;;;;;;;;5088154;28;20040;-64
2023/01/02 11:31:50;;;;;;;4.95;1.50;;;;;;;;;;5088866;28;20051;-64
2023/01/02 11:34:21;;;;;;;3.58;1.50;;;;;;;;;;5085100;28;20413;-64
2023/01/02 11:37:00;;;;;;;5.88;2.17;;;;;;;;;;5088095;28;20075;-64
2023/01/02 11:39:26;;;;;;;5.25;1.73;;;;;;;;;;5088652;28;20079;-64
2023/01/02 11:44:56;;;;;;;3.55;1.10;;;;;;;;;;5080582;28;20048;-64
2023/01/02 11:47:29;;;;;;;6.43;1.77;;;;;;;;;;5098170;28;20093;-63
2023/01/02 11:49:55;;;;;;;2.63;1.17;;;;;;;;;;5090096;28;20555;-64
2023/01/02 11:52:25;;;;;;;2.95;1.75;;;;;;;;;;5074922;28;20134;-64
2023/01/02 11:54:59;;;;;;;5.63;1.63;;;;;;;;;;5071615;28;20043;-64
2023/01/02 11:57:38;;;;;;;2.10;1.25;;;;;;;;;;5083778;28;20528;-64
2023/01/02 12:00:06;;;;;;;4.13;1.33;;;;;;;;;;5084560;28;20452;-64
2023/01/02 12:02:39;;;;;;;2.42;0.98;;;;;;;;;;5097203;28;20044;-63
2023/01/02 12:05:10;;;;;;;2.88;1.30;;;;;;;;;;5094781;28;20044;-63
2023/01/02 12:07:42;;;;;;;2.60;1.20;;;;;;;;;;5102568;28;20542;-63
2023/01/02 12:10:16;;;;;;;2.58;1.10;;;;;;;;;;5090295;28;20093;-64
2023/01/02 12:13:01;;;;;;;2.45;1.58;;;;;;;;;;5097862;28;20143;-63
2023/01/02 12:15:39;;;;;;;2.83;0.88;;;;;;;;;;5093651;28;20055;-63
2023/01/02 12:18:26;;;;;;;5.55;1.08;;;;;;;;;;5084171;28;20173;-63
2023/01/02 12:20:59;;;;;;;4.90;1.65;;;;;;;;;;5082053;28;20508;-63
2023/01/02 12:23:49;;;;;;;4.90;0.80;;;;;;;;;;5085561;28;20083;-63
2023/01/02 12:26:23;;;;;;;3.08;0.80;;;;;;;;;;5088750;28;20040;-63
2023/01/02 12:29:04;;;;;;;3.28;0.90;;;;;;;;;;5080559;28;20055;-63
2023/01/02 12:31:30;;;;;;;4.70;1.23;;;;;;;;;;5077150;28;20501;-63
2023/01/02 12:34:11;;;;;;;5.82;1.30;;;;;;;;;;5093084;28;20049;-63
2023/01/02 12:36:40;;;;;;;4.95;1.17;;;;;;;;;;5080074;28;20086;-63
2023/01/02 12:39:24;;;;;;;9.55;1.35;;;;;;;;;;5085470;28;20127;-63
2023/01/02 12:42:17;;;;;;;4.95;1.20;;;;;;;;;;5089499;28;20101;-63
2023/01/02 12:44:53;;;;;;;4.43;1.58;;;;;;;;;;5096892;28;20040;-63
2023/01/02 12:47:22;;;;;;;3.22;1.02;;;;;;;;;;5074198;28;20052;-63
2023/01/02 12:50:00;;;;;;;8.45;1.42;;;;;;;;;;5079356;28;20064;-68
2023/01/02 12:52:45;;;;;;;5.85;1.38;;;;;;;;;;5084850;28;20048;-63
2023/01/02 12:55:11;;;;;;;3.42;1.30;;;;;;;;;;5077281;28;20037;-63
2023/01/02 12:57:56;;;;;;;3.75;0.93;;;;;;;;;;5088836;28;20040;-63
2023/01/02 13:00:36;;;;;;;6.18;1.20;;;;;;;;;;5091708;28;20036;-63
2023/01/02 13:03:17;;;;;;;3.50;0.93;;;;;;;;;;5091153;28;20717;-63
2023/01/02 13:05:46;;;;;;;5.85;1.60;;;;;;;;;;5073022;28;20496;-63
2023/01/02 13:08:18;;;;;;;6.90;1.70;;;;;;;;;;5093654;28;20478;-63
2023/01/02 13:10:45;;;;;;;5.85;1.52;;;;;;;;;;5085467;28;20044;-63
2023/01/02 13:13:12;;;;;;;7.22;1.65;;;;;;;;;;5089879;28;20119;-63
2023/01/02 13:15:40;;;;;;;6.32;1.40;;;;;;;;;;5074635;28;20040;-63
2023/01/02 13:18:10;;;;;;;4.03;1.05;;;;;;;;;;5085676;28;20491;-63
2023/01/02 13:20:54;;;;;;;4.85;1.48;;;;;;;;;;5080370;28;20085;-64
2023/01/02 13:23:26;;;;;;;3.17;1.30;;;;;;;;;;5087326;28;20040;-63
2023/01/02 13:25:55;;;;;;;5.30;1.60;;;;;;;;;;5082824;28;20048;-63
2023/01/02 13:28:21;;;;;;;6.15;1.35;;;;;;;;;;5090718;28;20036;-63
2023/01/02 13:30:50;;;;;;;9.30;1.98;;;;;;;;;;5091982;28;20047;-63
2023/01/02 13:33:27;;;;;;;8.55;1.60;;;;;;;;;;5100459;28;20097;-63
2023/01/02 13:35:53;;;;;;;5.47;1.60;;;;;;;;;;5085216;28;20052;-63
2023/01/02 13:38:28;;;;;;;6.97;2.17;;;;;;;;;;5074116;28;20102;-63
2023/01/02 13:40:56;;;;;;;7.35;1.60;;;;;;;;;;5080903;28;20062;-66
2023/01/02 13:43:25;;;;;;;8.60;1.85;;;;;;;;;;5098831;28;20040;-64
2023/01/02 13:45:53;;;;;;;6.25;2.22;;;;;;;;;;5101495;28;20274;-64
2023/01/02 13:48:26;;;;;;;6.75;1.58;;;;;;;;;;5100083;28;20044;-64
2023/01/02 13:50:59;;;;;;;7.95;1.85;;;;;;;;;;5098197;28;20054;-65
2023/01/02 13:53:36;;;;;;;4.85;1.27;;;;;;;;;;5085289;28;20543;-65
2023/01/02 13:56:02;;;;;;;2.85;1.20;;;;;;;;;;5089651;28;20048;-65
2023/01/02 13:58:39;;;;;;;5.32;1.80;;;;;;;;;;5098210;28;20055;-65
2023/01/02 14:01:20;;;;;;;7.28;1.88;;;;;;;;;;5088586;28;20078;-64
2023/01/02 14:03:46;;;;;;;8.40;1.80;;;;;;;;;;5098879;28;20051;-65
2023/01/02 14:06:27;;;;;;;10.43;2.53;;;;;;;;;;5086497;28;20031;-65
2023/01/02 14:09:06;;;;;;;5.43;1.40;;;;;;;;;;5097713;28;20040;-65
2023/01/02 14:11:50;;;;;;;8.13;1.60;;;;;;;;;;5105077;28;20044;-65
2023/01/02 14:14:41;;;;;;;8.15;1.45;;;;;;;;;;5089829;28;20042;-65
2023/01/02 14:17:14;;;;;;;7.88;1.58;;;;;;;;;;5091692;28;21298;-65
2023/01/02 14:19:40;;;;;;;5.28;1.70;;;;;;;;;;5100927;28;20209;-64
2023/01/02 14:22:17;;;;;;;6.53;1.85;;;;;;;;;;5101637;28;20050;-65
2023/01/02 14:24:51;;;;;;;11.80;2.15;;;;;;;;;;5104263;28;20039;-65
2023/01/02 14:27:17;;;;;;;9.80;1.90;;;;;;;;;;5085423;28;20032;-65
2023/01/02 14:29:46;;;;;;;4.97;1.45;;;;;;;;;;5083983;28;20120;-65
2023/01/02 14:32:48;;;;;;;6.53;1.65;;;;;;;;;;5083643;28;20043;-65
2023/01/02 14:35:14;;;;;;;5.68;1.55;;;;;;;;;;4967233;28;20100;-67
2023/01/02 14:37:47;;;;;;;10.18;2.13;;;;;;;;;;5061534;28;20048;-65
2023/01/02 14:40:32;;;;;;;11.57;2.50;;;;;;;;;;5097119;28;20044;-65
2023/01/02 14:45:51;;;;;;;8.93;2.47;;;;;;;;;;5101656;28;20047;-65
2023/01/02 14:48:19;;;;;;;10.23;1.77;;;;;;;;;;5079567;28;20509;-65
2023/01/02 14:50:47;;;;;;;7.53;2.47;;;;;;;;;;5097852;28;20066;-65
2023/01/02 14:53:21;;;;;;;10.07;1.70;;;;;;;;;;5096419;28;20398;-65
2023/01/02 14:55:49;;;;;;;9.10;2.15;;;;;;;;;;5090589;28;20482;-65
2023/01/02 14:58:22;;;;;;;9.10;2.17;;;;;;;;;;5084986;28;20167;-65
2023/01/02 15:00:48;;;;;;;7.82;1.80;;;;;;;;;;5089733;28;20047;-64
2023/01/02 15:03:21;;;;;;;9.43;1.88;;;;;;;;;;5086725;28;20360;-65
2023/01/02 15:05:50;;;;;;;4.47;1.38;;;;;;;;;;5101674;28;20567;-65